sensor_id;sensor_type;location;lat;lon;timestamp;pressure;altitude;pressure_sealevel;temperature;humidity
52777;BME280;38656;54.260;20.822;2023-03-12T00:00:54;99496.63;;;10.64;42.11
52777;BME280;38656;54.260;20.822;2023-03-12T00:03:20;99494.59;;;12.10;40.93
52777;BME280;38656;54.260;20.822;2023-03-12T00:05:46;99492.06;;;12.78;38.85
52777;BME280;38656;54.260;20.822;2023-03-12T00:08:13;99492.16;;;10.47;42.56
52777;BME280;38656;54.260;20.822;2023-03-12T00:10:40;99496.19;;;11.59;41.10
52777;BME280;38656;54.260;20.822;2023-03-12T00:13:06;99480.00;;;11.18;41.17
52777;BME280;38656;54.260;20.822;2023-03-12T00:15:38;99478.19;;;11.36;41.29
52777;BME280;38656;54.260;20.822;2023-03-12T00:18:04;99463.47;;;12.98;39.31
52777;BME280;38656;54.260;20.822;2023-03-12T00:20:31;99467.06;;;11.50;41.06
52777;BME280;38656;54.260;20.822;2023-03-12T00:22:57;99470.72;;;10.95;42.13
52777;BME280;38656;54.260;20.822;2023-03-12T00:25:23;99463.44;;;11.78;41.65
52777;BME280;38656;54.260;20.822;2023-03-12T00:27:49;99467.72;;;11.08;41.21
52777;BME280;38656;54.260;20.822;2023-03-12T00:30:16;99457.97;;;11.97;41.09
52777;BME280;38656;54.260;20.822;2023-03-12T00:32:42;99455.81;;;10.58;43.75
52777;BME280;38656;54.260;20.822;2023-03-12T00:35:08;99443.28;;;11.50;41.95
52777;BME280;38656;54.260;20.822;2023-03-12T00:37:36;99443.19;;;11.42;42.28
52777;BME280;38656;54.260;20.822;2023-03-12T00:40:05;99446.22;;;11.74;42.97
52777;BME280;38656;54.260;20.822;2023-03-12T00:42:33;99446.66;;;11.61;41.31
52777;BME280;38656;54.260;20.822;2023-03-12T00:44:59;99439.16;;;12.09;41.22
52777;BME280;38656;54.260;20.822;2023-03-12T00:47:25;99419.13;;;12.41;41.11
52777;BME280;38656;54.260;20.822;2023-03-12T00:49:52;99430.28;;;11.92;42.97
52777;BME280;38656;54.260;20.822;2023-03-12T00:52:18;99431.19;;;12.43;41.86
52777;BME280;38656;54.260;20.822;2023-03-12T00:54:44;99412.06;;;12.57;41.13
52777;BME280;38656;54.260;20.822;2023-03-12T00:57:10;99425.94;;;11.30;42.11
52777;BME280;38656;54.260;20.822;2023-03-12T00:59:36;99428.81;;;11.63;42.97
52777;BME280;38656;54.260;20.822;2023-03-12T01:02:06;99425.16;;;12.16;42.55
52777;BME280;38656;54.260;20.822;2023-03-12T01:04:32;99431.19;;;11.74;41.90
52777;BME280;38656;54.260;20.822;2023-03-12T01:06:58;99414.28;;;11.41;43.61
52777;BME280;38656;54.260;20.822;2023-03-12T01:09:24;99423.50;;;12.15;42.05
52777;BME280;38656;54.260;20.822;2023-03-12T01:11:50;99423.50;;;12.15;43.68
52777;BME280;38656;54.260;20.822;2023-03-12T01:14:17;99419.03;;;12.59;43.12
52777;BME280;38656;54.260;20.822;2023-03-12T01:16:43;99417.34;;;12.66;41.21
52777;BME280;38656;54.260;20.822;2023-03-12T01:19:09;99408.28;;;14.86;41.54
52777;BME280;38656;54.260;20.822;2023-03-12T01:21:35;99413.25;;;12.88;43.29
52777;BME280;38656;54.260;20.822;2023-03-12T01:24:02;99414.13;;;13.46;41.97
52777;BME280;38656;54.260;20.822;2023-03-12T01:26:28;99407.13;;;13.53;43.22
52777;BME280;38656;54.260;20.822;2023-03-12T01:28:54;99410.34;;;12.40;44.00
52777;BME280;38656;54.260;20.822;2023-03-12T01:31:20;99413.03;;;11.79;47.00
52777;BME280;38656;54.260;20.822;2023-03-12T01:33:51;99403.16;;;14.13;42.05
52777;BME280;38656;54.260;20.822;2023-03-12T01:36:23;99407.50;;;13.34;44.08
52777;BME280;38656;54.260;20.822;2023-03-12T01:38:51;99400.22;;;12.27;45.79
52777;BME280;38656;54.260;20.822;2023-03-12T01:41:19;99397.56;;;13.36;43.14
52777;BME280;38656;54.260;20.822;2023-03-12T01:43:45;99394.53;;;12.65;44.91
52777;BME280;38656;54.260;20.822;2023-03-12T01:46:42;99396.53;;;11.85;46.51
52777;BME280;38656;54.260;20.822;2023-03-12T01:49:10;99387.16;;;13.90;43.72
52777;BME280;38656;54.260;20.822;2023-03-12T01:52:57;99399.50;;;12.76;43.94
52777;BME280;38656;54.260;20.822;2023-03-12T01:57:43;99392.50;;;12.42;43.75
52777;BME280;38656;54.260;20.822;2023-03-12T02:00:22;99384.59;;;15.14;40.60
52777;BME280;38656;54.260;20.822;2023-03-12T02:02:51;99388.41;;;12.72;43.51
52777;BME280;38656;54.260;20.822;2023-03-12T02:05:50;99381.38;;;14.18;40.57
52777;BME280;38656;54.260;20.822;2023-03-12T02:08:18;99387.25;;;13.08;42.54
52777;BME280;38656;54.260;20.822;2023-03-12T02:10:44;99388.94;;;12.17;43.78
52777;BME280;38656;54.260;20.822;2023-03-12T02:13:11;99383.06;;;14.19;42.61
52777;BME280;38656;54.260;20.822;2023-03-12T02:15:38;99380.94;;;15.15;41.29
52777;BME280;38656;54.260;20.822;2023-03-12T02:18:07;99387.13;;;13.98;42.75
52777;BME280;38656;54.260;20.822;2023-03-12T02:23:25;99385.81;;;14.89;41.70
52777;BME280;38656;54.260;20.822;2023-03-12T02:25:55;99394.09;;;12.27;44.25
52777;BME280;38656;54.260;20.822;2023-03-12T02:28:25;99391.88;;;13.14;43.59
52777;BME280;38656;54.260;20.822;2023-03-12T02:30:57;99383.63;;;13.98;41.46
52777;BME280;38656;54.260;20.822;2023-03-12T02:33:25;99388.72;;;12.61;44.56
52777;BME280;38656;54.260;20.822;2023-03-12T02:35:51;99383.56;;;13.75;43.27
52777;BME280;38656;54.260;20.822;2023-03-12T02:41:09;99385.69;;;12.48;45.38
52777;BME280;38656;54.260;20.822;2023-03-12T02:43:36;99387.59;;;13.05;42.85
52777;BME280;38656;54.260;20.822;2023-03-12T02:46:02;99377.22;;;12.36;44.54
52777;BME280;38656;54.260;20.822;2023-03-12T02:48:28;99365.38;;;14.03;42.79
52777;BME280;38656;54.260;20.822;2023-03-12T02:50:54;99376.75;;;13.80;43.61
52777;BME280;38656;54.260;20.822;2023-03-12T02:53:21;99385.50;;;12.33;44.61
52777;BME280;38656;54.260;20.822;2023-03-12T02:55:47;99368.88;;;14.66;41.60
52777;BME280;38656;54.260;20.822;2023-03-12T02:58:13;99368.44;;;14.78;41.97
52777;BME280;38656;54.260;20.822;2023-03-12T03:00:39;99376.00;;;12.65;44.44
52777;BME280;38656;54.260;20.822;2023-03-12T03:03:05;99371.00;;;12.53;45.99
52777;BME280;38656;54.260;20.822;2023-03-12T03:05:32;99383.91;;;12.56;43.82
52777;BME280;38656;54.260;20.822;2023-03-12T03:07:58;99380.63;;;12.71;44.57
52777;BME280;38656;54.260;20.822;2023-03-12T03:10:24;99393.50;;;11.72;47.53
52777;BME280;38656;54.260;20.822;2023-03-12T03:12:50;99392.63;;;11.37;46.90
52777;BME280;38656;54.260;20.822;2023-03-12T03:15:16;99393.75;;;11.87;47.45
52777;BME280;38656;54.260;20.822;2023-03-12T03:17:42;99397.94;;;11.98;47.27
52777;BME280;38656;54.260;20.822;2023-03-12T03:20:09;99402.22;;;12.33;46.31
52777;BME280;38656;54.260;20.822;2023-03-12T03:22:37;99412.13;;;13.07;45.33
52777;BME280;38656;54.260;20.822;2023-03-12T03:25:04;99419.63;;;14.01;44.39
52777;BME280;38656;54.260;20.822;2023-03-12T03:27:31;99424.22;;;12.26;46.67
52777;BME280;38656;54.260;20.822;2023-03-12T03:29:57;99413.09;;;13.06;44.86
52777;BME280;38656;54.260;20.822;2023-03-12T03:32:23;99402.47;;;13.63;43.56
52777;BME280;38656;54.260;20.822;2023-03-12T03:34:50;99406.38;;;12.44;45.43
52777;BME280;38656;54.260;20.822;2023-03-12T03:37:16;99415.19;;;12.10;45.54
52777;BME280;38656;54.260;20.822;2023-03-12T03:39:42;99414.41;;;13.68;44.77
52777;BME280;38656;54.260;20.822;2023-03-12T03:42:08;99426.91;;;12.42;44.95
52777;BME280;38656;54.260;20.822;2023-03-12T03:44:34;99419.09;;;13.41;45.50
52777;BME280;38656;54.260;20.822;2023-03-12T03:47:00;99423.50;;;12.74;45.08
52777;BME280;38656;54.260;20.822;2023-03-12T03:49:27;99421.94;;;11.78;46.91
52777;BME280;38656;54.260;20.822;2023-03-12T03:51:53;99413.72;;;13.74;45.40
52777;BME280;38656;54.260;20.822;2023-03-12T03:54:20;99422.88;;;12.89;45.24
52777;BME280;38656;54.260;20.822;2023-03-12T03:56:46;99427.03;;;13.33;44.42
52777;BME280;38656;54.260;20.822;2023-03-12T03:59:12;99430.59;;;12.57;45.48
52777;BME280;38656;54.260;20.822;2023-03-12T04:01:39;99416.09;;;13.52;43.37
52777;BME280;38656;54.260;20.822;2023-03-12T04:04:05;99430.03;;;13.62;45.10
52777;BME280;38656;54.260;20.822;2023-03-12T04:06:31;99431.78;;;15.35;42.08
52777;BME280;38656;54.260;20.822;2023-03-12T04:08:58;99427.78;;;14.39;43.53
52777;BME280;38656;54.260;20.822;2023-03-12T04:11:25;99439.94;;;13.77;45.71
52777;BME280;38656;54.260;20.822;2023-03-12T04:13:51;99425.03;;;13.18;44.62
52777;BME280;38656;54.260;20.822;2023-03-12T04:16:18;99448.34;;;15.84;41.59
52777;BME280;38656;54.260;20.822;2023-03-12T04:18:44;99440.81;;;17.05;39.45
52777;BME280;38656;54.260;20.822;2023-03-12T04:21:12;99450.03;;;17.03;39.32
52777;BME280;38656;54.260;20.822;2023-03-12T04:23:38;99456.81;;;16.32;40.33
52777;BME280;38656;54.260;20.822;2023-03-12T04:26:06;99439.75;;;17.78;38.83
52777;BME280;38656;54.260;20.822;2023-03-12T04:28:32;99451.28;;;16.19;40.83
52777;BME280;38656;54.260;20.822;2023-03-12T04:31:01;99455.69;;;15.82;41.41
52777;BME280;38656;54.260;20.822;2023-03-12T04:33:30;99460.34;;;13.60;48.51
52777;BME280;38656;54.260;20.822;2023-03-12T04:35:56;99461.13;;;12.95;48.47
52777;BME280;38656;54.260;20.822;2023-03-12T04:38:25;99458.50;;;13.19;47.14
52777;BME280;38656;54.260;20.822;2023-03-12T04:41:11;99446.41;;;13.17;46.07
52777;BME280;38656;54.260;20.822;2023-03-12T04:43:39;99428.56;;;15.02;43.88
52777;BME280;38656;54.260;20.822;2023-03-12T04:46:06;99431.78;;;14.74;42.46
52777;BME280;38656;54.260;20.822;2023-03-12T04:48:33;99442.06;;;12.24;45.67
52777;BME280;38656;54.260;20.822;2023-03-12T04:50:59;99452.25;;;13.45;43.77
52777;BME280;38656;54.260;20.822;2023-03-12T04:53:26;99445.50;;;14.07;41.98
52777;BME280;38656;54.260;20.822;2023-03-12T04:55:52;99459.03;;;13.39;42.93
52777;BME280;38656;54.260;20.822;2023-03-12T04:58:19;99460.16;;;13.04;43.47
52777;BME280;38656;54.260;20.822;2023-03-12T05:00:47;99452.88;;;13.72;43.69
52777;BME280;38656;54.260;20.822;2023-03-12T05:03:14;99471.41;;;14.44;40.98
52777;BME280;38656;54.260;20.822;2023-03-12T05:05:41;99462.44;;;15.69;39.50
52777;BME280;38656;54.260;20.822;2023-03-12T05:08:07;99475.69;;;14.06;41.99
52777;BME280;38656;54.260;20.822;2023-03-12T05:10:34;99482.22;;;12.53;44.14
52777;BME280;38656;54.260;20.822;2023-03-12T05:13:00;99474.69;;;12.83;42.06
52777;BME280;38656;54.260;20.822;2023-03-12T05:15:26;99480.53;;;14.42;40.79
52777;BME280;38656;54.260;20.822;2023-03-12T05:17:53;99479.81;;;15.80;38.77
52777;BME280;38656;54.260;20.822;2023-03-12T05:20:19;99476.06;;;14.82;40.17
52777;BME280;38656;54.260;20.822;2023-03-12T05:22:46;99490.53;;;12.59;43.28
52777;BME280;38656;54.260;20.822;2023-03-12T05:25:12;99497.28;;;13.04;42.68
52777;BME280;38656;54.260;20.822;2023-03-12T05:27:38;99496.97;;;13.73;42.10
52777;BME280;38656;54.260;20.822;2023-03-12T05:30:05;99503.19;;;12.81;42.45
52777;BME280;38656;54.260;20.822;2023-03-12T05:32:32;99486.94;;;14.16;41.19
52777;BME280;38656;54.260;20.822;2023-03-12T05:34:58;99493.78;;;13.20;41.90
52777;BME280;38656;54.260;20.822;2023-03-12T05:37:24;99496.31;;;13.79;41.30
52777;BME280;38656;54.260;20.822;2023-03-12T05:39:53;99501.72;;;14.58;40.55
52777;BME280;38656;54.260;20.822;2023-03-12T05:42:19;99513.91;;;13.55;42.78
52777;BME280;38656;54.260;20.822;2023-03-12T05:44:45;99523.31;;;14.55;40.61
52777;BME280;38656;54.260;20.822;2023-03-12T05:47:11;99537.50;;;12.56;42.63
52777;BME280;38656;54.260;20.822;2023-03-12T05:49:38;99534.13;;;16.54;36.75
52777;BME280;38656;54.260;20.822;2023-03-12T05:52:04;99533.41;;;15.77;37.97
52777;BME280;38656;54.260;20.822;2023-03-12T05:54:30;99546.66;;;16.38;37.24
52777;BME280;38656;54.260;20.822;2023-03-12T05:56:56;99547.03;;;16.50;35.79
52777;BME280;38656;54.260;20.822;2023-03-12T05:59:23;99549.75;;;15.51;38.12
52777;BME280;38656;54.260;20.822;2023-03-12T06:01:49;99569.16;;;14.65;39.92
52777;BME280;38656;54.260;20.822;2023-03-12T06:04:15;99565.34;;;15.31;40.58
52777;BME280;38656;54.260;20.822;2023-03-12T06:06:41;99577.91;;;13.52;42.73
52777;BME280;38656;54.260;20.822;2023-03-12T06:09:08;99576.88;;;12.51;46.45
52777;BME280;38656;54.260;20.822;2023-03-12T06:11:34;99567.66;;;12.98;45.67
52777;BME280;38656;54.260;20.822;2023-03-12T06:14:00;99575.94;;;12.08;47.92
52777;BME280;38656;54.260;20.822;2023-03-12T06:16:27;99568.41;;;12.82;47.47
52777;BME280;38656;54.260;20.822;2023-03-12T06:19:00;99576.75;;;13.79;45.13
52777;BME280;38656;54.260;20.822;2023-03-12T06:21:29;99596.50;;;13.69;47.05
52777;BME280;38656;54.260;20.822;2023-03-12T06:23:56;99590.06;;;13.20;48.78
52777;BME280;38656;54.260;20.822;2023-03-12T06:26:23;99612.59;;;11.31;50.19
52777;BME280;38656;54.260;20.822;2023-03-12T06:28:50;99613.09;;;12.77;55.85
52777;BME280;38656;54.260;20.822;2023-03-12T06:31:18;99612.22;;;13.03;63.99
52777;BME280;38656;54.260;20.822;2023-03-12T06:33:44;99602.59;;;17.13;47.91
52777;BME280;38656;54.260;20.822;2023-03-12T06:36:11;99601.09;;;14.32;48.70
52777;BME280;38656;54.260;20.822;2023-03-12T06:38:37;99609.41;;;16.56;45.88
52777;BME280;38656;54.260;20.822;2023-03-12T06:41:13;99605.56;;;16.88;44.05
52777;BME280;38656;54.260;20.822;2023-03-12T06:43:40;99620.19;;;15.00;45.32
52777;BME280;38656;54.260;20.822;2023-03-12T06:46:07;99603.44;;;13.78;46.52
52777;BME280;38656;54.260;20.822;2023-03-12T06:48:35;99610.28;;;14.86;45.15
52777;BME280;38656;54.260;20.822;2023-03-12T06:51:05;99609.03;;;14.49;47.01
52777;BME280;38656;54.260;20.822;2023-03-12T06:53:31;99622.69;;;15.33;43.97
52777;BME280;38656;54.260;20.822;2023-03-12T06:55:58;99631.03;;;16.61;42.66
52777;BME280;38656;54.260;20.822;2023-03-12T06:58:24;99640.94;;;14.24;45.71
52777;BME280;38656;54.260;20.822;2023-03-12T07:00:50;99646.53;;;13.63;45.03
52777;BME280;38656;54.260;20.822;2023-03-12T07:03:17;99639.81;;;14.91;46.83
52777;BME280;38656;54.260;20.822;2023-03-12T07:05:45;99639.28;;;14.15;44.54
52777;BME280;38656;54.260;20.822;2023-03-12T07:08:11;99630.91;;;13.01;47.24
52777;BME280;38656;54.260;20.822;2023-03-12T07:10:38;99620.97;;;14.69;44.55
52777;BME280;38656;54.260;20.822;2023-03-12T07:13:04;99619.69;;;13.99;46.49
52777;BME280;38656;54.260;20.822;2023-03-12T07:15:30;99632.75;;;13.52;45.35
52777;BME280;38656;54.260;20.822;2023-03-12T07:18:05;99628.78;;;15.11;43.47
52777;BME280;38656;54.260;20.822;2023-03-12T07:20:32;99652.56;;;14.07;45.08
52777;BME280;38656;54.260;20.822;2023-03-12T07:22:59;99659.53;;;14.41;43.77
52777;BME280;38656;54.260;20.822;2023-03-12T07:25:25;99668.38;;;15.68;42.32
52777;BME280;38656;54.260;20.822;2023-03-12T07:27:51;99675.69;;;15.43;41.18
52777;BME280;38656;54.260;20.822;2023-03-12T07:30:18;99676.06;;;14.84;43.85
52777;BME280;38656;54.260;20.822;2023-03-12T07:32:44;99676.38;;;13.15;46.54
52777;BME280;38656;54.260;20.822;2023-03-12T07:35:10;99683.09;;;17.16;40.72
52777;BME280;38656;54.260;20.822;2023-03-12T07:37:36;99646.19;;;13.50;45.95
52777;BME280;38656;54.260;20.822;2023-03-12T07:40:03;99637.28;;;16.68;42.39
52777;BME280;38656;54.260;20.822;2023-03-12T07:42:33;99641.44;;;15.40;43.73
52777;BME280;38656;54.260;20.822;2023-03-12T07:44:59;99641.41;;;15.48;43.63
52777;BME280;38656;54.260;20.822;2023-03-12T07:47:25;99637.66;;;16.27;44.48
52777;BME280;38656;54.260;20.822;2023-03-12T07:49:52;99654.84;;;14.76;44.83
52777;BME280;38656;54.260;20.822;2023-03-12T07:52:18;99674.25;;;10.17;56.45
52777;BME280;38656;54.260;20.822;2023-03-12T07:54:45;99657.16;;;10.98;55.96
52777;BME280;38656;54.260;20.822;2023-03-12T07:57:11;99681.59;;;11.00;57.85
52777;BME280;38656;54.260;20.822;2023-03-12T07:59:37;99692.56;;;12.51;53.11
52777;BME280;38656;54.260;20.822;2023-03-12T08:02:03;99697.34;;;12.73;50.73
52777;BME280;38656;54.260;20.822;2023-03-12T08:04:30;99696.75;;;15.53;46.08
52777;BME280;38656;54.260;20.822;2023-03-12T08:06:56;99708.47;;;15.98;44.76
52777;BME280;38656;54.260;20.822;2023-03-12T08:09:22;99699.09;;;17.16;44.48
52777;BME280;38656;54.260;20.822;2023-03-12T08:11:48;99713.81;;;15.27;45.43
52777;BME280;38656;54.260;20.822;2023-03-12T08:14:14;99730.09;;;15.72;44.92
52777;BME280;38656;54.260;20.822;2023-03-12T08:16:40;99734.59;;;17.32;46.90
52777;BME280;38656;54.260;20.822;2023-03-12T08:19:07;99731.63;;;19.98;39.68
52777;BME280;38656;54.260;20.822;2023-03-12T08:21:33;99732.59;;;16.28;40.60
52777;BME280;38656;54.260;20.822;2023-03-12T08:23:59;99747.72;;;16.04;44.05
52777;BME280;38656;54.260;20.822;2023-03-12T08:26:25;99746.28;;;17.46;40.48
52777;BME280;38656;54.260;20.822;2023-03-12T08:28:51;99760.81;;;16.75;43.90
52777;BME280;38656;54.260;20.822;2023-03-12T08:31:18;99764.97;;;18.34;49.03
52777;BME280;38656;54.260;20.822;2023-03-12T08:33:44;99758.09;;;18.25;40.94
52777;BME280;38656;54.260;20.822;2023-03-12T08:36:12;99750.00;;;20.21;37.13
52777;BME280;38656;54.260;20.822;2023-03-12T08:38:38;99757.56;;;16.04;40.80
52777;BME280;38656;54.260;20.822;2023-03-12T08:41:05;99752.28;;;17.33;42.93
52777;BME280;38656;54.260;20.822;2023-03-12T08:43:31;99741.66;;;18.99;38.57
52777;BME280;38656;54.260;20.822;2023-03-12T08:45:59;99718.66;;;20.28;36.60
52777;BME280;38656;54.260;20.822;2023-03-12T08:48:27;99729.22;;;19.75;37.09
52777;BME280;38656;54.260;20.822;2023-03-12T08:50:55;99749.50;;;15.49;41.91
52777;BME280;38656;54.260;20.822;2023-03-12T08:53:22;99733.72;;;19.54;38.35
52777;BME280;38656;54.260;20.822;2023-03-12T08:55:51;99751.59;;;15.14;42.66
52777;BME280;38656;54.260;20.822;2023-03-12T08:58:17;99747.53;;;16.06;41.31
52777;BME280;38656;54.260;20.822;2023-03-12T09:00:43;99743.13;;;18.52;37.75
52777;BME280;38656;54.260;20.822;2023-03-12T09:03:09;99745.13;;;16.80;41.02
52777;BME280;38656;54.260;20.822;2023-03-12T09:05:40;99750.25;;;19.30;37.66
52777;BME280;38656;54.260;20.822;2023-03-12T09:08:06;99749.56;;;16.27;40.96
52777;BME280;38656;54.260;20.822;2023-03-12T09:10:32;99745.94;;;17.85;38.60
52777;BME280;38656;54.260;20.822;2023-03-12T09:13:01;99757.28;;;18.74;36.71
52777;BME280;38656;54.260;20.822;2023-03-12T09:15:27;99768.66;;;15.36;42.64
52777;BME280;38656;54.260;20.822;2023-03-12T09:17:54;99766.63;;;15.38;42.91
52777;BME280;38656;54.260;20.822;2023-03-12T09:20:21;99773.44;;;14.68;44.67
52777;BME280;38656;54.260;20.822;2023-03-12T09:22:48;99784.31;;;15.31;41.88
52777;BME280;38656;54.260;20.822;2023-03-12T09:25:15;99770.97;;;17.48;40.95
52777;BME280;38656;54.260;20.822;2023-03-12T09:27:45;99789.84;;;18.56;39.42
52777;BME280;38656;54.260;20.822;2023-03-12T09:30:22;99820.66;;;13.65;46.00
52777;BME280;38656;54.260;20.822;2023-03-12T09:32:51;99809.16;;;16.03;45.42
52777;BME280;38656;54.260;20.822;2023-03-12T09:35:17;99827.72;;;15.71;42.99
52777;BME280;38656;54.260;20.822;2023-03-12T09:37:48;99823.50;;;17.47;41.98
52777;BME280;38656;54.260;20.822;2023-03-12T09:40:18;99808.25;;;19.51;40.93
52777;BME280;38656;54.260;20.822;2023-03-12T09:45:57;99806.22;;;18.25;37.73
52777;BME280;38656;54.260;20.822;2023-03-12T09:48:35;99821.69;;;16.72;37.44
52777;BME280;38656;54.260;20.822;2023-03-12T09:51:16;99826.41;;;15.75;38.55
52777;BME280;38656;54.260;20.822;2023-03-12T09:53:47;99811.31;;;21.31;32.70
52777;BME280;38656;54.260;20.822;2023-03-12T09:56:16;99814.50;;;19.64;34.89
52777;BME280;38656;54.260;20.822;2023-03-12T09:58:44;99821.75;;;17.84;37.32
52777;BME280;38656;54.260;20.822;2023-03-12T10:07:00;99814.72;;;18.35;37.24
52777;BME280;38656;54.260;20.822;2023-03-12T10:09:43;99813.66;;;19.99;35.31
52777;BME280;38656;54.260;20.822;2023-03-12T10:17:42;99813.66;;;20.94;33.19
52777;BME280;38656;54.260;20.822;2023-03-12T10:25:44;99833.25;;;19.30;33.66
52777;BME280;38656;54.260;20.822;2023-03-12T10:28:21;99825.00;;;20.96;32.67
52777;BME280;38656;54.260;20.822;2023-03-12T10:31:04;99830.94;;;22.10;30.92
52777;BME280;38656;54.260;20.822;2023-03-12T10:33:57;99841.81;;;20.30;31.67
52777;BME280;38656;54.260;20.822;2023-03-12T10:36:28;99842.94;;;19.66;32.13
52777;BME280;38656;54.260;20.822;2023-03-12T10:38:59;99845.81;;;21.21;29.86
52777;BME280;38656;54.260;20.822;2023-03-12T10:41:30;99843.94;;;26.86;26.55
52777;BME280;38656;54.260;20.822;2023-03-12T10:44:02;99843.78;;;23.04;27.29
52777;BME280;38656;54.260;20.822;2023-03-12T10:46:51;99856.66;;;24.81;25.23
52777;BME280;38656;54.260;20.822;2023-03-12T10:49:23;99854.50;;;26.13;25.46
52777;BME280;38656;54.260;20.822;2023-03-12T10:54:40;99871.44;;;21.24;28.03
52777;BME280;38656;54.260;20.822;2023-03-12T10:57:10;99879.56;;;23.80;24.65
52777;BME280;38656;54.260;20.822;2023-03-12T10:59:39;99887.06;;;23.35;24.79
52777;BME280;38656;54.260;20.822;2023-03-12T11:02:33;99885.41;;;24.14;24.77
52777;BME280;38656;54.260;20.822;2023-03-12T11:05:01;99887.13;;;23.90;23.84
52777;BME280;38656;54.260;20.822;2023-03-12T11:07:32;99886.69;;;25.26;23.60
52777;BME280;38656;54.260;20.822;2023-03-12T11:12:36;99900.22;;;22.15;25.13
52777;BME280;38656;54.260;20.822;2023-03-12T11:15:27;99909.91;;;23.76;23.69
52777;BME280;38656;54.260;20.822;2023-03-12T11:20:43;99909.91;;;23.32;24.62
52777;BME280;38656;54.260;20.822;2023-03-12T11:23:19;99914.47;;;20.00;26.26
52777;BME280;38656;54.260;20.822;2023-03-12T11:25:57;99921.91;;;20.53;25.77
52777;BME280;38656;54.260;20.822;2023-03-12T11:28:38;99919.00;;;21.50;24.06
52777;BME280;38656;54.260;20.822;2023-03-12T11:31:19;99917.97;;;22.23;23.21
52777;BME280;38656;54.260;20.822;2023-03-12T11:33:47;99938.72;;;20.68;25.44
52777;BME280;38656;54.260;20.822;2023-03-12T11:39:01;99935.72;;;23.14;23.46
52777;BME280;38656;54.260;20.822;2023-03-12T11:44:26;99951.00;;;20.56;24.57
52777;BME280;38656;54.260;20.822;2023-03-12T12:01:03;99976.91;;;27.30;20.06
52777;BME280;38656;54.260;20.822;2023-03-12T12:06:33;99964.22;;;21.86;23.52
52777;BME280;38656;54.260;20.822;2023-03-12T12:09:24;99977.41;;;23.05;23.56
52777;BME280;38656;54.260;20.822;2023-03-12T12:26:11;100006.03;;;20.74;23.78
52777;BME280;38656;54.260;20.822;2023-03-12T12:31:56;100013.03;;;19.48;24.37
52777;BME280;38656;54.260;20.822;2023-03-12T12:40:17;100030.16;;;21.49;23.69
52777;BME280;38656;54.260;20.822;2023-03-12T12:43:02;100037.13;;;21.23;23.25
52777;BME280;38656;54.260;20.822;2023-03-12T12:45:29;100034.88;;;23.31;22.98
52777;BME280;38656;54.260;20.822;2023-03-12T12:48:03;100040.94;;;24.46;22.05
52777;BME280;38656;54.260;20.822;2023-03-12T12:50:35;100034.47;;;22.89;22.11
52777;BME280;38656;54.260;20.822;2023-03-12T12:53:32;100051.41;;;25.21;20.34
52777;BME280;38656;54.260;20.822;2023-03-12T12:56:16;100052.25;;;23.67;22.15
52777;BME280;38656;54.260;20.822;2023-03-12T12:58:48;100063.00;;;22.51;21.93
52777;BME280;38656;54.260;20.822;2023-03-12T13:01:19;100064.88;;;24.42;20.89
52777;BME280;38656;54.260;20.822;2023-03-12T13:03:46;100062.84;;;23.94;22.12
52777;BME280;38656;54.260;20.822;2023-03-12T13:06:13;100077.53;;;21.90;22.31
52777;BME280;38656;54.260;20.822;2023-03-12T13:14:11;100076.91;;;22.08;22.53
52777;BME280;38656;54.260;20.822;2023-03-12T13:16:47;100094.06;;;21.73;23.19
52777;BME280;38656;54.260;20.822;2023-03-12T13:27:18;100115.41;;;20.72;22.97
52777;BME280;38656;54.260;20.822;2023-03-12T13:29:47;100118.94;;;21.27;23.24
52777;BME280;38656;54.260;20.822;2023-03-12T13:33:02;100120.16;;;21.18;23.03
52777;BME280;38656;54.260;20.822;2023-03-12T13:43:16;100124.09;;;20.17;23.35
52777;BME280;38656;54.260;20.822;2023-03-12T13:46:05;100129.28;;;26.04;20.60
52777;BME280;38656;54.260;20.822;2023-03-12T13:48:35;100136.06;;;22.01;22.96
52777;BME280;38656;54.260;20.822;2023-03-12T13:51:19;100145.16;;;24.90;19.79
52777;BME280;38656;54.260;20.822;2023-03-12T13:53:49;100151.09;;;21.55;22.99
52777;BME280;38656;54.260;20.822;2023-03-12T13:56:19;100151.94;;;21.56;23.32
52777;BME280;38656;54.260;20.822;2023-03-12T14:01:17;100159.53;;;25.40;21.04
52777;BME280;38656;54.260;20.822;2023-03-12T14:03:47;100153.78;;;23.87;21.66
52777;BME280;38656;54.260;20.822;2023-03-12T14:06:21;100158.25;;;27.39;19.50
52777;BME280;38656;54.260;20.822;2023-03-12T14:09:10;100158.72;;;26.59;21.05
52777;BME280;38656;54.260;20.822;2023-03-12T14:14:35;100180.53;;;20.09;23.42
52777;BME280;38656;54.260;20.822;2023-03-12T14:17:13;100179.34;;;24.60;22.12
52777;BME280;38656;54.260;20.822;2023-03-12T14:19:47;100186.41;;;21.52;21.89
52777;BME280;38656;54.260;20.822;2023-03-12T14:22:16;100189.94;;;21.11;23.77
52777;BME280;38656;54.260;20.822;2023-03-12T14:24:52;100195.34;;;21.18;23.46
52777;BME280;38656;54.260;20.822;2023-03-12T14:27:28;100199.97;;;21.37;23.19
52777;BME280;38656;54.260;20.822;2023-03-12T14:30:22;100195.41;;;19.75;24.31
52777;BME280;38656;54.260;20.822;2023-03-12T14:32:52;100202.16;;;20.79;24.14
52777;BME280;38656;54.260;20.822;2023-03-12T14:37:58;100206.34;;;23.12;22.90
52777;BME280;38656;54.260;20.822;2023-03-12T14:43:22;100214.06;;;22.01;23.13
52777;BME280;38656;54.260;20.822;2023-03-12T14:45:50;100206.34;;;22.98;23.04
52777;BME280;38656;54.260;20.822;2023-03-12T14:48:27;100220.25;;;21.47;22.14
52777;BME280;38656;54.260;20.822;2023-03-12T14:50:55;100206.72;;;20.07;24.10
52777;BME280;38656;54.260;20.822;2023-03-12T14:53:31;100223.94;;;20.19;23.43